Time;durP1;ratioP1;P1;durP2;ratioP2;P2;SDS_P1;SDS_P2;PMS_P1;PMS_P2;Temp;Humidity;BMP_temperature;BMP_pressure;BME280_temperature;BME280_humidity;BME280_pressure;Samples;Min_cycle;Max_cycle;Signal;HPM_P1;HPM_P2
2023/05/27 00:02:12;;;;;;;;;;;;;;;15.94;100.00;99360.33;109584;1251;67716;-66
2023/05/27 00:04:39;;;;;;;;;;;;;;;15.89;100.00;99361.20;109479;1254;72252;-69
2023/05/27 00:07:07;;;;;;;;;;;;;;;15.82;100.00;99361.24;109563;1251;60504;-68
2023/05/27 00:09:35;;;;;;;;;;;;;;;15.76;100.00;99365.98;109492;1251;60303;-69
2023/05/27 00:12:02;;;;;;;;;;;;;;;15.71;100.00;99371.46;109562;1251;73368;-68
2023/05/27 00:14:30;;;;;;;;;;;;;;;15.68;100.00;99370.20;109517;1253;67779;-66
2023/05/27 00:16:57;;;;;;;;;;;;;;;15.65;100.00;99366.39;109464;1253;72703;-67
2023/05/27 00:19:24;;;;;;;;;;;;;;;15.63;100.00;99361.36;109621;1253;60390;-67
2023/05/27 00:21:52;;;;;;;;;;;;;;;15.61;100.00;99359.70;109518;1252;59813;-68
2023/05/27 00:24:20;;;;;;;;;;;;;;;15.58;100.00;99365.65;109499;1253;73431;-72
2023/05/27 00:26:47;;;;;;;;;;;;;;;15.54;100.00;99366.13;109521;1251;68139;-67
2023/05/27 00:29:18;;;;;;;;;;;;;;;15.51;100.00;99365.80;109554;1251;72721;-66
2023/05/27 00:31:45;;;;;;;;;;;;;;;15.50;100.00;99363.70;109579;1253;61691;-66
2023/05/27 00:34:12;;;;;;;;;;;;;;;15.46;100.00;99364.05;109543;1251;58910;-69
2023/05/27 00:36:40;;;;;;;;;;;;;;;15.41;100.00;99363.77;109602;1251;74605;-69
2023/05/27 00:39:07;;;;;;;;;;;;;;;15.37;100.00;99368.27;109586;1256;67617;-68
2023/05/27 00:41:35;;;;;;;;;;;;;;;15.32;100.00;99369.77;109444;1252;72702;-68
2023/05/27 00:44:03;;;;;;;;;;;;;;;15.28;100.00;99367.21;109533;1251;58996;-68
2023/05/27 00:46:30;;;;;;;;;;;;;;;15.25;100.00;99368.57;109581;1251;58985;-66
2023/05/27 00:48:58;;;;;;;;;;;;;;;15.21;100.00;99374.08;109573;1251;74684;-65
2023/05/27 00:51:25;;;;;;;;;;;;;;;15.17;100.00;99372.30;109616;1251;68134;-66
2023/05/27 00:53:53;;;;;;;;;;;;;;;15.11;100.00;99372.95;109481;1251;72840;-66
2023/05/27 00:56:20;;;;;;;;;;;;;;;15.06;100.00;99375.94;109480;1254;58866;-68
2023/05/27 00:58:47;;;;;;;;;;;;;;;15.01;100.00;99378.52;109504;1253;59841;-68
2023/05/27 01:01:15;;;;;;;;;;;;;;;14.97;100.00;99376.97;109633;1251;74667;-68
2023/05/27 01:03:42;;;;;;;;;;;;;;;14.93;100.00;99381.66;109430;1251;67719;-67
2023/05/27 01:06:28;;;;;;;;;;;;;;;14.90;100.00;99380.82;109474;1251;72479;-70
2023/05/27 01:08:59;;;;;;;;;;;;;;;14.87;100.00;99376.64;109329;1251;180853;-68
2023/05/27 01:11:28;;;;;;;;;;;;;;;14.84;100.00;99374.20;109418;1251;58948;-67
2023/05/27 01:13:56;;;;;;;;;;;;;;;14.81;100.00;99371.39;109488;1251;73382;-68
2023/05/27 01:16:24;;;;;;;;;;;;;;;14.79;100.00;99371.38;109529;1251;66352;-65
2023/05/27 01:18:52;;;;;;;;;;;;;;;14.75;100.00;99373.35;109452;1254;72697;-69
2023/05/27 01:21:21;;;;;;;;;;;;;;;14.72;100.00;99373.34;109496;1253;58889;-65
2023/05/27 01:23:48;;;;;;;;;;;;;;;14.73;100.00;99366.70;109501;1253;58880;-68
2023/05/27 01:26:16;;;;;;;;;;;;;;;14.75;100.00;99362.89;109505;1251;74705;-69
2023/05/27 01:28:44;;;;;;;;;;;;;;;14.75;100.00;99362.73;109466;1251;67595;-67
2023/05/27 01:31:31;;;;;;;;;;;;;;;14.76;100.00;99370.88;109419;1251;70781;-69
2023/05/27 01:33:59;;;;;;;;;;;;;;;14.76;100.00;99375.11;109493;1251;61903;-65
2023/05/27 01:36:27;;;;;;;;;;;;;;;14.72;100.00;99380.45;109550;1253;59562;-65
2023/05/27 01:38:54;;;;;;;;;;;;;;;14.67;100.00;99381.02;109500;1251;73328;-70
2023/05/27 01:41:22;;;;;;;;;;;;;;;14.64;100.00;99378.20;109455;1252;67988;-64
2023/05/27 01:43:50;;;;;;;;;;;;;;;14.61;100.00;99381.73;109460;1251;72450;-65
2023/05/27 01:46:17;;;;;;;;;;;;;;;14.58;100.00;99383.47;109527;1253;61654;-66
2023/05/27 01:48:45;;;;;;;;;;;;;;;14.60;100.00;99383.04;109613;1251;59863;-69
2023/05/27 01:51:12;;;;;;;;;;;;;;;14.62;100.00;99386.88;109544;1253;75126;-69
2023/05/27 01:53:40;;;;;;;;;;;;;;;14.60;100.00;99389.70;109420;1251;66733;-67
2023/05/27 01:56:07;;;;;;;;;;;;;;;14.57;100.00;99387.23;109554;1251;72684;-66
2023/05/27 01:58:34;;;;;;;;;;;;;;;14.56;100.00;99387.87;109504;1253;61738;-69
2023/05/27 02:01:02;;;;;;;;;;;;;;;14.54;100.00;99387.41;109484;1252;59945;-66
2023/05/27 02:03:29;;;;;;;;;;;;;;;14.50;100.00;99389.94;109577;1253;74679;-66
2023/05/27 02:05:57;;;;;;;;;;;;;;;14.45;100.00;99392.55;109538;1252;67848;-65
2023/05/27 02:08:27;;;;;;;;;;;;;;;14.44;100.00;99393.16;109506;1253;72527;-68
2023/05/27 02:10:54;;;;;;;;;;;;;;;14.45;100.00;99390.41;109391;1254;60902;-66
2023/05/27 02:13:21;;;;;;;;;;;;;;;14.43;100.00;99393.39;109604;1252;59778;-66
2023/05/27 02:15:49;;;;;;;;;;;;;;;14.40;100.00;99392.80;109415;1251;74711;-66
2023/05/27 02:18:17;;;;;;;;;;;;;;;14.39;100.00;99392.91;109560;1253;66476;-69
2023/05/27 02:20:45;;;;;;;;;;;;;;;14.37;100.00;99393.73;109386;1252;72706;-66
2023/05/27 02:23:12;;;;;;;;;;;;;;;14.38;100.00;99391.84;109557;1254;60151;-69
2023/05/27 02:25:39;;;;;;;;;;;;;;;14.37;100.00;99391.39;109486;1252;59822;-67
2023/05/27 02:28:06;;;;;;;;;;;;;;;14.33;100.00;99391.64;109531;1253;74686;-70
2023/05/27 02:30:34;;;;;;;;;;;;;;;14.30;100.00;99395.34;109408;1253;67547;-66
2023/05/27 02:33:01;;;;;;;;;;;;;;;14.29;100.00;99398.51;109461;1252;72779;-69
2023/05/27 02:35:29;;;;;;;;;;;;;;;14.29;100.00;99400.27;109637;1252;58969;-69
2023/05/27 02:37:56;;;;;;;;;;;;;;;14.30;100.00;99400.56;109326;1253;59811;-66
2023/05/27 02:40:27;;;;;;;;;;;;;;;14.33;100.00;99409.96;109379;1252;73376;-66
2023/05/27 02:42:55;;;;;;;;;;;;;;;14.37;100.00;99414.20;109449;1251;66763;-66
2023/05/27 02:45:23;;;;;;;;;;;;;;;14.43;100.00;99415.42;109469;1253;72661;-68
2023/05/27 02:47:51;;;;;;;;;;;;;;;14.50;100.00;99415.63;109361;1251;58978;-64
2023/05/27 02:50:18;;;;;;;;;;;;;;;14.58;100.00;99413.30;109602;1251;59781;-65
2023/05/27 02:52:45;;;;;;;;;;;;;;;14.67;100.00;99409.93;109567;1251;74653;-64
2023/05/27 02:55:13;;;;;;;;;;;;;;;14.74;100.00;99407.98;109569;1251;66473;-69
2023/05/27 02:57:40;;;;;;;;;;;;;;;14.79;100.00;99408.01;109395;1251;72727;-68
2023/05/27 03:00:09;;;;;;;;;;;;;;;14.85;100.00;99407.42;109489;1254;60129;-68
2023/05/27 03:02:36;;;;;;;;;;;;;;;14.94;100.00;99413.85;109490;1253;59815;-69
2023/05/27 03:05:04;;;;;;;;;;;;;;;15.04;100.00;99413.18;109662;1253;74575;-69
2023/05/27 03:07:31;;;;;;;;;;;;;;;15.14;100.00;99420.23;109598;1251;67668;-65
2023/05/27 03:10:00;;;;;;;;;;;;;;;15.21;100.00;99423.55;109388;1251;71161;-65
2023/05/27 03:12:28;;;;;;;;;;;;;;;15.25;100.00;99421.22;109517;1252;60025;-68
2023/05/27 03:14:55;;;;;;;;;;;;;;;15.34;100.00;99418.85;109600;1253;59758;-67
2023/05/27 03:17:22;;;;;;;;;;;;;;;15.41;100.00;99410.29;109594;1251;73346;-68
2023/05/27 03:19:50;;;;;;;;;;;;;;;15.47;100.00;99416.52;109571;1251;67623;-68
2023/05/27 03:22:17;;;;;;;;;;;;;;;15.59;100.00;99415.89;109441;1254;71522;-67
2023/05/27 03:24:46;;;;;;;;;;;;;;;15.71;100.00;99422.05;109402;1253;59067;-67
2023/05/27 03:27:13;;;;;;;;;;;;;;;15.84;100.00;99424.46;109465;1251;59774;-64
2023/05/27 03:29:42;;;;;;;;;;;;;;;15.97;100.00;99427.48;109470;1251;73471;-69
2023/05/27 03:32:10;;;;;;;;;;;;;;;16.04;100.00;99432.44;109484;1251;67604;-67
2023/05/27 03:34:38;;;;;;;;;;;;;;;16.02;100.00;99432.84;109426;1253;71465;-65
2023/05/27 03:37:06;;;;;;;;;;;;;;;16.00;100.00;99437.35;109422;1253;59244;-69
2023/05/27 03:39:48;;;;;;;;;;;;;;;16.02;100.00;99439.48;109469;1252;58858;-66
2023/05/27 03:42:15;;;;;;;;;;;;;;;16.13;100.00;99438.46;109461;1253;74710;-66
2023/05/27 03:44:43;;;;;;;;;;;;;;;16.30;100.00;99440.77;109589;1251;67556;-64
2023/05/27 03:47:10;;;;;;;;;;;;;;;16.39;100.00;99447.69;109581;1251;71418;-66
2023/05/27 03:49:37;;;;;;;;;;;;;;;16.38;100.00;99447.16;109542;1254;59673;-65
2023/05/27 03:52:06;;;;;;;;;;;;;;;16.27;100.00;99449.19;109408;1253;58983;-68
2023/05/27 03:54:33;;;;;;;;;;;;;;;16.16;100.00;99449.61;109442;1251;74847;-67
2023/05/27 03:57:01;;;;;;;;;;;;;;;16.10;100.00;99448.99;109469;1251;66563;-65
2023/05/27 03:59:28;;;;;;;;;;;;;;;16.00;100.00;99455.02;109415;1251;72746;-66
2023/05/27 04:01:55;;;;;;;;;;;;;;;15.85;100.00;99457.39;109438;1254;58975;-66
2023/05/27 04:04:23;;;;;;;;;;;;;;;15.73;100.00;99465.84;109572;1254;59810;-67
2023/05/27 04:06:53;;;;;;;;;;;;;;;15.64;100.00;99462.55;109441;1251;74613;-65
2023/05/27 04:09:20;;;;;;;;;;;;;;;15.57;100.00;99467.64;109470;1251;66433;-66
2023/05/27 04:11:47;;;;;;;;;;;;;;;15.63;100.00;99467.55;109549;1254;72748;-66
2023/05/27 04:14:15;;;;;;;;;;;;;;;15.89;100.00;99467.02;109622;1254;58940;-65
2023/05/27 04:16:42;;;;;;;;;;;;;;;16.29;100.00;99462.56;109649;1253;58906;-64
2023/05/27 04:19:10;;;;;;;;;;;;;;;16.68;100.00;99459.29;109555;1251;73448;-66
2023/05/27 04:21:38;;;;;;;;;;;;;;;17.09;100.00;99457.52;109450;1251;67612;-65
2023/05/27 04:24:05;;;;;;;;;;;;;;;17.53;100.00;99454.27;109431;1252;71850;-67
2023/05/27 04:26:33;;;;;;;;;;;;;;;17.93;100.00;99455.98;109383;1251;58961;-66
2023/05/27 04:29:01;;;;;;;;;;;;;;;18.34;100.00;99457.06;109414;1251;58980;-69
2023/05/27 04:31:28;;;;;;;;;;;;;;;18.71;100.00;99461.63;109384;1251;74683;-65
2023/05/27 04:34:02;;;;;;;;;;;;;;;18.97;100.00;99463.42;109406;1252;67733;-67
2023/05/27 04:36:33;;;;;;;;;;;;;;;19.19;100.00;99469.06;109351;1252;71399;-67
2023/05/27 04:39:07;;;;;;;;;;;;;;;19.41;100.00;99470.80;109398;1256;60060;-68
2023/05/27 04:41:35;;;;;;;;;;;;;;;19.55;99.25;99474.02;109455;1253;59907;-66
2023/05/27 04:44:02;;;;;;;;;;;;;;;19.72;97.78;99471.00;109520;1251;74677;-65
2023/05/27 04:46:34;;;;;;;;;;;;;;;19.89;96.44;99472.55;109604;1252;69235;-69
2023/05/27 04:49:01;;;;;;;;;;;;;;;20.03;94.67;99474.27;109450;1254;72634;-69
2023/05/27 04:51:29;;;;;;;;;;;;;;;20.18;93.76;99471.46;109363;1251;60105;-69
2023/05/27 04:53:57;;;;;;;;;;;;;;;20.37;92.73;99472.65;109486;1251;60332;-68
2023/05/27 04:56:24;;;;;;;;;;;;;;;20.54;91.11;99469.72;109339;1252;73373;-71
2023/05/27 04:58:52;;;;;;;;;;;;;;;20.70;89.52;99469.88;109485;1254;66762;-68
2023/05/27 05:01:24;;;;;;;;;;;;;;;20.81;87.99;99472.34;109287;1254;71400;-69
2023/05/27 05:04:13;;;;;;;;;;;;;;;20.93;86.57;99471.08;109440;1254;59297;-68
2023/05/27 05:06:58;;;;;;;;;;;;;;;21.06;86.19;99466.41;109321;1254;60714;-70
2023/05/27 05:09:25;;;;;;;;;;;;;;;21.27;84.22;99470.16;109371;1253;74589;-70
2023/05/27 05:11:53;;;;;;;;;;;;;;;21.42;82.27;99469.04;109567;1253;67598;-69
2023/05/27 05:14:21;;;;;;;;;;;;;;;21.65;81.11;99471.96;109324;1253;72674;-67
2023/05/27 05:16:48;;;;;;;;;;;;;;;21.90;79.40;99467.58;109312;1253;60209;-71
2023/05/27 05:19:16;;;;;;;;;;;;;;;22.05;75.99;99470.27;109315;1252;59245;-69
2023/05/27 05:21:44;;;;;;;;;;;;;;;22.12;74.09;99475.34;109395;1254;73418;-69
2023/05/27 05:24:11;;;;;;;;;;;;;;;22.11;73.86;99475.71;109302;1254;66327;-60
2023/05/27 05:26:40;;;;;;;;;;;;;;;22.22;74.86;99475.07;109332;1254;72770;-69
2023/05/27 05:29:07;;;;;;;;;;;;;;;22.46;74.01;99476.48;109367;1253;59032;-71
2023/05/27 05:31:34;;;;;;;;;;;;;;;22.58;71.56;99478.14;109352;1251;58861;-69
2023/05/27 05:34:02;;;;;;;;;;;;;;;22.73;70.66;99475.68;109472;1251;74711;-69
2023/05/27 05:36:31;;;;;;;;;;;;;;;22.93;69.22;99481.61;109412;1252;68361;-68
2023/05/27 05:39:01;;;;;;;;;;;;;;;23.07;68.27;99481.87;109460;1252;72730;-66
2023/05/27 05:41:28;;;;;;;;;;;;;;;23.27;68.32;99482.42;109449;1253;58954;-67
2023/05/27 05:43:56;;;;;;;;;;;;;;;23.59;67.98;99483.14;109317;1253;59011;-67
2023/05/27 05:46:23;;;;;;;;;;;;;;;23.85;65.70;99478.05;109258;1254;74646;-70
2023/05/27 05:48:51;;;;;;;;;;;;;;;24.02;64.14;99482.47;109292;1254;68024;-67
2023/05/27 05:51:22;;;;;;;;;;;;;;;24.27;63.41;99484.35;109412;1253;70550;-68
2023/05/27 05:53:53;;;;;;;;;;;;;;;24.56;62.82;99483.22;109432;1252;60277;-66
2023/05/27 05:56:21;;;;;;;;;;;;;;;24.79;61.41;99486.56;109358;1252;59936;-70
2023/05/27 05:58:49;;;;;;;;;;;;;;;24.98;60.89;99488.91;109417;1254;73408;-71
2023/05/27 06:01:16;;;;;;;;;;;;;;;25.21;59.52;99488.71;109410;1252;67646;-67
2023/05/27 06:03:44;;;;;;;;;;;;;;;25.38;58.43;99487.80;109264;1251;72754;-67
2023/05/27 06:06:23;;;;;;;;;;;;;;;25.59;57.16;99486.77;109260;1252;58915;-72
2023/05/27 06:09:06;;;;;;;;;;;;;;;25.74;55.16;99485.73;109231;1253;59831;-70
2023/05/27 06:11:34;;;;;;;;;;;;;;;25.79;54.97;99482.41;109276;1252;74682;-68
2023/05/27 06:14:01;;;;;;;;;;;;;;;25.98;54.54;99481.85;109272;1254;67616;-68
2023/05/27 06:16:28;;;;;;;;;;;;;;;26.18;53.21;99480.33;109209;1252;73137;-68
2023/05/27 06:18:57;;;;;;;;;;;;;;;26.35;52.18;99480.94;109355;1252;60073;-68
2023/05/27 06:21:25;;;;;;;;;;;;;;;26.49;51.22;99482.09;109585;1252;59918;-67
2023/05/27 06:24:19;;;;;;;;;;;;;;;26.64;50.25;99484.96;109280;1252;74664;-70
2023/05/27 06:26:51;;;;;;;;;;;;;;;26.78;49.42;99490.36;109370;1254;68342;-68
2023/05/27 06:29:18;;;;;;;;;;;;;;;26.96;49.18;99492.95;109552;1253;72736;-68
2023/05/27 06:31:48;;;;;;;;;;;;;;;27.15;47.96;99493.56;109356;1254;60105;-69
2023/05/27 06:34:16;;;;;;;;;;;;;;;27.32;47.28;99494.80;109438;1253;58921;-68
2023/05/27 06:36:43;;;;;;;;;;;;;;;27.37;46.05;99493.16;109500;1253;73847;-67
2023/05/27 06:39:10;;;;;;;;;;;;;;;27.40;45.58;99493.48;109597;1251;66835;-69
2023/05/27 06:41:37;;;;;;;;;;;;;;;27.44;45.57;99496.92;109410;1251;70434;-69
2023/05/27 06:44:23;;;;;;;;;;;;;;;27.51;45.15;99499.63;109465;1255;60079;-65
2023/05/27 06:46:57;;;;;;;;;;;;;;;27.55;44.72;99502.45;109317;1252;58994;-64
2023/05/27 06:49:29;;;;;;;;;;;;;;;27.60;44.18;99503.09;109534;1254;74134;-63
2023/05/27 06:51:57;;;;;;;;;;;;;;;27.57;44.18;99504.96;109465;1254;67639;-65
2023/05/27 06:54:25;;;;;;;;;;;;;;;27.59;44.10;99501.73;109459;1252;71583;-65
2023/05/27 06:56:57;;;;;;;;;;;;;;;27.66;43.52;99499.63;109396;1251;59377;-65
2023/05/27 06:59:51;;;;;;;;;;;;;;;27.65;43.74;99496.67;109518;1252;58977;-64
2023/05/27 07:02:18;;;;;;;;;;;;;;;27.71;43.73;99497.63;109517;1254;74071;-68
2023/05/27 07:04:46;;;;;;;;;;;;;;;27.82;43.49;99496.19;109367;1251;66349;-69
2023/05/27 07:07:13;;;;;;;;;;;;;;;27.93;43.09;99493.16;109580;1253;71856;-66
2023/05/27 07:09:41;;;;;;;;;;;;;;;28.06;42.57;99497.00;109523;1254;58978;-68
2023/05/27 07:12:08;;;;;;;;;;;;;;;28.16;42.42;99497.02;109419;1251;59809;-67
2023/05/27 07:14:56;;;;;;;;;;;;;;;28.43;42.27;99497.44;109515;1254;73460;-66
2023/05/27 07:17:24;;;;;;;;;;;;;;;28.68;41.78;99499.80;109389;1254;67614;-69
2023/05/27 07:19:51;;;;;;;;;;;;;;;28.78;40.56;99496.06;109544;1251;71389;-64
2023/05/27 07:22:20;;;;;;;;;;;;;;;28.71;40.35;99496.61;109351;1254;60066;-66
2023/05/27 07:24:47;;;;;;;;;;;;;;;28.58;40.06;99501.20;109587;1253;58878;-68
2023/05/27 07:27:14;;;;;;;;;;;;;;;28.44;40.28;99498.69;109352;1253;73405;-68
2023/05/27 07:29:48;;;;;;;;;;;;;;;28.53;40.65;99501.95;109459;1254;67927;-69
2023/05/27 07:32:28;;;;;;;;;;;;;;;28.73;40.35;99503.61;109530;1251;73486;-69
2023/05/27 07:34:56;;;;;;;;;;;;;;;28.88;39.93;99500.17;109401;1251;60071;-70
2023/05/27 07:37:23;;;;;;;;;;;;;;;29.03;39.45;99499.30;109463;1251;59031;-68
2023/05/27 07:39:51;;;;;;;;;;;;;;;29.14;38.93;99500.44;109594;1251;73385;-65
2023/05/27 07:42:18;;;;;;;;;;;;;;;29.18;38.49;99502.14;109372;1251;67771;-67
2023/05/27 07:44:46;;;;;;;;;;;;;;;29.23;37.99;99502.34;109440;1253;71371;-70
2023/05/27 07:47:13;;;;;;;;;;;;;;;29.47;37.91;99501.77;109484;1254;60113;-68
2023/05/27 07:49:40;;;;;;;;;;;;;;;29.74;37.37;99506.58;109398;1251;61747;-70
2023/05/27 07:52:29;;;;;;;;;;;;;;;29.62;36.55;99502.79;109235;1257;73403;-69
2023/05/27 07:54:57;;;;;;;;;;;;;;;29.61;36.57;99500.02;109397;1251;66306;-71
2023/05/27 07:57:25;;;;;;;;;;;;;;;29.65;36.57;99498.70;109391;1254;72728;-68
2023/05/27 07:59:52;;;;;;;;;;;;;;;29.71;36.56;99500.81;109330;1257;59019;-67
2023/05/27 08:02:21;;;;;;;;;;;;;;;29.70;36.02;99499.02;109346;1251;59875;-69
2023/05/27 08:04:49;;;;;;;;;;;;;;;29.70;36.07;99496.86;109458;1253;73901;-66
2023/05/27 08:07:36;;;;;;;;;;;;;;;29.81;36.02;99498.33;109475;1251;68115;-68
2023/05/27 08:10:10;;;;;;;;;;;;;;;29.95;35.73;99496.16;109343;1254;72750;-65
2023/05/27 08:13:01;;;;;;;;;;;;;;;30.04;34.73;99498.73;109615;1251;59024;-70
2023/05/27 08:15:48;;;;;;;;;;;;;;;30.02;34.47;99496.61;109345;1252;58896;-69
2023/05/27 08:18:39;;;;;;;;;;;;;;;30.03;34.64;99499.73;109497;1253;73567;-63
2023/05/27 08:21:14;;;;;;;;;;;;;;;30.01;34.39;99502.89;109467;1251;66346;-68
2023/05/27 08:23:56;;;;;;;;;;;;;;;29.88;34.35;99502.63;109527;1258;71891;-65
2023/05/27 08:26:46;;;;;;;;;;;;;;;29.97;34.71;99503.20;109514;1254;61040;-68
2023/05/27 08:29:18;;;;;;;;;;;;;;;30.16;34.34;99498.86;109407;1254;59781;-65
2023/05/27 08:32:01;;;;;;;;;;;;;;;30.23;33.33;99497.78;109355;1253;74701;-68
2023/05/27 08:34:29;;;;;;;;;;;;;;;30.25;33.49;99499.78;109496;1251;68236;-65
2023/05/27 08:36:56;;;;;;;;;;;;;;;30.38;33.84;99497.55;109567;1257;72599;-66
2023/05/27 08:39:26;;;;;;;;;;;;;;;30.65;33.05;99494.70;109467;1254;60551;-66
2023/05/27 08:42:03;;;;;;;;;;;;;;;30.66;32.60;99493.85;109494;1251;59041;-68
2023/05/27 08:44:30;;;;;;;;;;;;;;;30.59;32.76;99495.29;109512;1254;74817;-66
2023/05/27 08:47:03;;;;;;;;;;;;;;;30.57;32.10;99490.27;109477;1251;67694;-65
2023/05/27 08:49:31;;;;;;;;;;;;;;;30.44;31.91;99490.41;109360;1253;71846;-65
2023/05/27 08:51:58;;;;;;;;;;;;;;;30.50;32.10;99492.13;109450;1256;60046;-65
2023/05/27 08:54:25;;;;;;;;;;;;;;;30.63;32.42;99492.03;109384;1254;59007;-65
2023/05/27 08:56:55;;;;;;;;;;;;;;;30.76;31.29;99493.61;109314;1254;74653;-67
2023/05/27 08:59:22;;;;;;;;;;;;;;;30.76;30.91;99493.06;109405;1259;66439;-67
2023/05/27 09:01:50;;;;;;;;;;;;;;;30.79;31.25;99492.52;109405;1251;72683;-66
2023/05/27 09:04:17;;;;;;;;;;;;;;;30.98;30.82;99486.69;109421;1255;60085;-68
2023/05/27 09:06:44;;;;;;;;;;;;;;;31.18;30.24;99483.84;109529;1251;59005;-66
2023/05/27 09:09:12;;;;;;;;;;;;;;;31.38;30.19;99481.23;109513;1253;74628;-65
2023/05/27 09:11:39;;;;;;;;;;;;;;;31.50;29.83;99475.02;109474;1253;67534;-66
2023/05/27 09:14:07;;;;;;;;;;;;;;;31.59;29.69;99469.59;109544;1254;72676;-66
2023/05/27 09:16:41;;;;;;;;;;;;;;;31.71;29.80;99469.48;109535;1251;60022;-66
2023/05/27 09:19:18;;;;;;;;;;;;;;;31.81;29.98;99473.23;109426;1253;59929;-67
2023/05/27 09:21:45;;;;;;;;;;;;;;;32.04;29.58;99466.88;109516;1251;73766;-65
2023/05/27 09:24:13;;;;;;;;;;;;;;;32.12;29.38;99469.29;109512;1253;67744;-67
2023/05/27 09:26:40;;;;;;;;;;;;;;;32.19;28.88;99463.84;109600;1251;71832;-66
2023/05/27 09:29:07;;;;;;;;;;;;;;;31.73;29.39;99470.17;109439;1255;60016;-59
2023/05/27 09:31:39;;;;;;;;;;;;;;;31.12;29.85;99467.30;109564;1254;58883;-67
2023/05/27 09:34:13;;;;;;;;;;;;;;;30.91;30.59;99467.59;109591;1251;74861;-69
2023/05/27 09:36:44;;;;;;;;;;;;;;;31.25;29.88;99467.47;109590;1251;66543;-67
2023/05/27 09:39:15;;;;;;;;;;;;;;;31.53;29.69;99465.13;109553;1251;71363;-69
2023/05/27 09:41:42;;;;;;;;;;;;;;;31.02;29.84;99463.19;109487;1254;58936;-63
2023/05/27 09:44:10;;;;;;;;;;;;;;;30.56;29.50;99464.55;109621;1254;59798;-67
2023/05/27 09:46:37;;;;;;;;;;;;;;;30.79;29.88;99463.46;109554;1251;76829;-68
2023/05/27 09:49:05;;;;;;;;;;;;;;;31.31;29.62;99453.95;109531;1251;66939;-68
2023/05/27 09:51:32;;;;;;;;;;;;;;;31.95;29.40;99449.04;109517;1254;72647;-68
2023/05/27 09:53:59;;;;;;;;;;;;;;;32.21;28.47;99452.70;109572;1253;60022;-67
2023/05/27 09:56:27;;;;;;;;;;;;;;;32.26;27.92;99452.59;109600;1251;58852;-66
2023/05/27 09:58:55;;;;;;;;;;;;;;;32.39;27.52;99450.52;109601;1251;75174;-66
2023/05/27 10:01:28;;;;;;;;;;;;;;;32.65;27.58;99449.08;109533;1251;67814;-65
2023/05/27 10:03:56;;;;;;;;;;;;;;;33.19;27.17;99443.91;109592;1251;71421;-67
2023/05/27 10:06:29;;;;;;;;;;;;;;;33.55;26.34;99441.65;109451;1257;59957;-66
2023/05/27 10:08:56;;;;;;;;;;;;;;;33.89;25.80;99442.58;109488;1259;59947;-65
2023/05/27 10:11:26;;;;;;;;;;;;;;;34.18;25.18;99436.03;109597;1251;74666;-65
2023/05/27 10:13:53;;;;;;;;;;;;;;;34.51;24.80;99441.36;109690;1251;67621;-72
2023/05/27 10:16:25;;;;;;;;;;;;;;;34.72;24.29;99438.52;109438;1255;71933;-73
2023/05/27 10:18:53;;;;;;;;;;;;;;;34.49;23.96;99441.13;109599;1254;59017;-68
2023/05/27 10:21:21;;;;;;;;;;;;;;;34.64;23.94;99439.13;109455;1254;58957;-67
2023/05/27 10:23:57;;;;;;;;;;;;;;;34.92;23.66;99436.42;109521;1254;73893;-69
2023/05/27 10:26:35;;;;;;;;;;;;;;;35.13;23.79;99439.55;109623;1251;68061;-64
2023/05/27 10:29:12;;;;;;;;;;;;;;;35.22;23.67;99441.19;109507;1251;72667;-65
2023/05/27 10:31:43;;;;;;;;;;;;;;;34.98;23.58;99440.63;109602;1251;58983;-64
2023/05/27 10:34:11;;;;;;;;;;;;;;;34.37;23.70;99441.69;109595;1252;59884;-67
2023/05/27 10:36:38;;;;;;;;;;;;;;;33.57;24.12;99443.30;109540;1251;74858;-73
2023/05/27 10:39:06;;;;;;;;;;;;;;;32.67;25.14;99438.13;109534;1251;67605;-67
2023/05/27 10:41:40;;;;;;;;;;;;;;;31.80;26.32;99443.87;109542;1251;72627;-67
2023/05/27 10:44:07;;;;;;;;;;;;;;;31.08;26.92;99445.60;109415;1254;59950;-67
2023/05/27 10:46:39;;;;;;;;;;;;;;;30.44;26.80;99445.73;109575;1256;58994;-69
2023/05/27 10:49:10;;;;;;;;;;;;;;;29.70;27.24;99441.62;109520;1251;74712;-67
2023/05/27 10:51:37;;;;;;;;;;;;;;;29.04;28.24;99445.40;109560;1251;66819;-67
2023/05/27 10:54:05;;;;;;;;;;;;;;;28.48;29.02;99446.84;109504;1251;72723;-66
2023/05/27 10:56:35;;;;;;;;;;;;;;;28.15;29.84;99449.86;109588;1251;60103;-65
2023/05/27 10:59:03;;;;;;;;;;;;;;;27.85;29.54;99442.75;109539;1254;59106;-67
2023/05/27 11:01:32;;;;;;;;;;;;;;;27.52;29.50;99440.83;109447;1251;74679;-69
2023/05/27 11:03:59;;;;;;;;;;;;;;;27.25;30.06;99445.63;109549;1251;66551;-66
2023/05/27 11:06:26;;;;;;;;;;;;;;;26.99;30.72;99445.06;109556;1251;72684;-66
2023/05/27 11:08:54;;;;;;;;;;;;;;;26.82;31.24;99443.31;109516;1251;59111;-66
2023/05/27 11:11:22;;;;;;;;;;;;;;;26.64;31.27;99444.20;109499;1254;59372;-66
2023/05/27 11:13:50;;;;;;;;;;;;;;;26.41;31.11;99446.09;109568;1251;72988;-67
2023/05/27 11:16:17;;;;;;;;;;;;;;;26.20;31.32;99441.61;109542;1251;66481;-67
2023/05/27 11:18:45;;;;;;;;;;;;;;;26.08;31.51;99438.80;109599;1251;72696;-68
2023/05/27 11:21:15;;;;;;;;;;;;;;;26.05;31.83;99441.19;109465;1254;59003;-68
2023/05/27 11:23:46;;;;;;;;;;;;;;;25.98;32.12;99442.13;109492;1253;59937;-65
2023/05/27 11:26:17;;;;;;;;;;;;;;;25.92;32.11;99442.98;109474;1253;74302;-66
2023/05/27 11:28:49;;;;;;;;;;;;;;;25.85;31.45;99436.27;109633;1251;66916;-66
2023/05/27 11:31:16;;;;;;;;;;;;;;;25.73;31.40;99436.10;109510;1253;71392;-67
2023/05/27 11:33:44;;;;;;;;;;;;;;;25.70;31.67;99430.19;109635;1251;60632;-66
2023/05/27 11:36:12;;;;;;;;;;;;;;;25.62;31.23;99438.30;109427;1254;59784;-66
2023/05/27 11:38:47;;;;;;;;;;;;;;;25.49;31.82;99433.94;109601;1251;74293;-68
2023/05/27 11:41:17;;;;;;;;;;;;;;;25.39;32.27;99431.56;109601;1251;67759;-57
2023/05/27 11:43:52;;;;;;;;;;;;;;;25.34;32.20;99429.57;109525;1253;71919;-75
2023/05/27 11:46:19;;;;;;;;;;;;;;;25.29;31.35;99432.77;109506;1254;60082;-61
2023/05/27 11:48:47;;;;;;;;;;;;;;;25.26;31.96;99431.08;109489;1252;59974;-60
2023/05/27 11:51:14;;;;;;;;;;;;;;;25.22;32.76;99431.17;109523;1251;74618;-63
2023/05/27 11:53:45;;;;;;;;;;;;;;;25.22;32.67;99423.54;109570;1254;66325;-64
2023/05/27 11:56:13;;;;;;;;;;;;;;;25.17;32.38;99430.83;109570;1251;71908;-64
2023/05/27 11:58:40;;;;;;;;;;;;;;;25.12;32.91;99426.08;109459;1254;62331;-63
2023/05/27 12:01:07;;;;;;;;;;;;;;;25.08;33.33;99422.63;109537;1251;58971;-63
2023/05/27 12:03:35;;;;;;;;;;;;;;;25.00;32.82;99421.51;109499;1253;74644;-63
2023/05/27 12:06:03;;;;;;;;;;;;;;;24.91;32.98;99427.01;109563;1254;66525;-66
